createdAt,value
2022-11-14T00:00:09.971Z,16.58
2022-11-14T00:01:12.937Z,15.60
2022-11-14T00:02:17.038Z,16.35
2022-11-14T00:03:18.936Z,15.10
2022-11-14T00:04:29.377Z,16.00
2022-11-14T00:05:31.434Z,15.30
2022-11-14T00:06:32.843Z,15.35
2022-11-14T00:07:35.688Z,15.35
2022-11-14T00:08:38.159Z,14.90
2022-11-14T00:09:43.005Z,14.10
2022-11-14T00:10:50.305Z,14.82
2022-11-14T00:11:54.631Z,15.43
2022-11-14T00:12:56.839Z,15.02
2022-11-14T00:14:01.794Z,14.63
2022-11-14T00:15:07.817Z,15.25
2022-11-14T00:16:10.863Z,14.30
2022-11-14T00:17:12.319Z,15.30
2022-11-14T00:18:17.713Z,14.00
2022-11-14T00:19:20.019Z,16.38
2022-11-14T00:20:22.592Z,14.13
2022-11-14T00:21:24.093Z,14.43
2022-11-14T00:22:26.755Z,14.82
2022-11-14T00:23:28.905Z,13.57
2022-11-14T00:24:31.618Z,13.30
2022-11-14T00:25:33.929Z,13.20
2022-11-14T00:26:36.687Z,13.30
2022-11-14T00:27:38.178Z,13.45
2022-11-14T00:28:43.375Z,13.43
2022-11-14T00:29:47.742Z,13.15
2022-11-14T00:30:49.367Z,14.23
2022-11-14T00:31:53.259Z,13.32
2022-11-14T00:32:54.685Z,13.88
2022-11-14T00:33:56.080Z,12.90
2022-11-14T00:34:57.442Z,14.32
2022-11-14T00:35:58.979Z,13.68
2022-11-14T00:37:02.677Z,14.02
2022-11-14T00:38:04.433Z,13.60
2022-11-14T00:39:09.159Z,14.23
2022-11-14T00:40:11.262Z,14.20
2022-11-14T00:41:13.767Z,14.48
2022-11-14T00:42:16.568Z,15.35
2022-11-14T00:43:21.632Z,16.58
2022-11-14T00:44:26.915Z,14.52
2022-11-14T00:45:29.786Z,15.18
2022-11-14T00:46:34.009Z,14.50
2022-11-14T00:47:37.285Z,15.18
2022-11-14T00:48:38.968Z,15.13
2022-11-14T00:49:41.431Z,15.23
2022-11-14T00:50:45.331Z,15.25
2022-11-14T00:51:48.784Z,14.63
2022-11-14T00:52:53.143Z,15.38
2022-11-14T00:53:55.874Z,16.70
2022-11-14T00:54:57.865Z,15.38
2022-11-14T00:56:02.911Z,15.43
2022-11-14T00:57:04.878Z,16.65
2022-11-14T00:58:07.332Z,16.58
2022-11-14T00:59:08.854Z,15.70
2022-11-14T01:00:14.042Z,14.20
2022-11-14T01:01:16.532Z,14.23
2022-11-14T01:02:21.853Z,15.93
2022-11-14T01:03:23.969Z,16.85
2022-11-14T01:04:27.030Z,14.68
2022-11-14T01:05:29.274Z,14.82
2022-11-14T01:06:31.952Z,14.75
2022-11-14T01:07:35.802Z,15.25
2022-11-14T01:08:38.117Z,14.93
2022-11-14T01:09:39.537Z,14.35
2022-11-14T01:10:46.696Z,15.35
2022-11-14T01:11:48.956Z,15.38
2022-11-14T01:12:52.309Z,15.20
2022-11-14T01:13:55.354Z,15.15
2022-11-14T01:14:59.894Z,16.70
2022-11-14T01:16:02.939Z,15.07
2022-11-14T01:17:05.563Z,13.88
2022-11-14T01:18:11.218Z,16.10
2022-11-14T01:19:13.643Z,14.10
2022-11-14T01:20:17.050Z,15.70
2022-11-14T01:21:19.925Z,14.63
2022-11-14T01:22:21.932Z,16.48
2022-11-14T01:23:24.502Z,16.42
2022-11-14T01:24:26.875Z,16.77
2022-11-14T01:25:29.502Z,15.43
2022-11-14T01:26:31.862Z,16.90
2022-11-14T01:27:33.345Z,14.63
2022-11-14T01:28:35.465Z,14.10
2022-11-14T01:29:38.155Z,14.18
2022-11-14T01:30:41.235Z,14.52
2022-11-14T01:31:45.867Z,13.70
2022-11-14T01:32:47.852Z,16.17
2022-11-14T01:33:52.137Z,14.27
2022-11-14T01:34:53.974Z,15.73
2022-11-14T01:35:59.997Z,14.60
2022-11-14T01:37:02.014Z,13.50
2022-11-14T01:38:05.978Z,14.90
2022-11-14T01:39:07.381Z,13.38
2022-11-14T01:40:11.010Z,14.23
2022-11-14T01:41:15.598Z,14.43
2022-11-14T01:42:20.942Z,15.27
2022-11-14T01:43:35.040Z,12.90
2022-11-14T01:44:49.171Z,13.77
2022-11-14T01:46:04.720Z,13.95
2022-11-14T01:47:07.552Z,14.05
2022-11-14T01:48:39.938Z,14.90
2022-11-14T01:49:49.151Z,16.70
2022-11-14T01:50:57.505Z,14.00
2022-11-14T01:52:23.886Z,15.45
2022-11-14T01:53:26.967Z,15.55
2022-11-14T01:54:47.024Z,14.05
2022-11-14T01:55:49.502Z,13.95
2022-11-14T01:56:59.096Z,14.20
2022-11-14T01:58:00.723Z,13.30
2022-11-14T01:59:10.485Z,13.63
2022-11-14T02:00:13.126Z,13.18
2022-11-14T02:01:16.268Z,13.57
2022-11-14T02:02:26.352Z,13.50
2022-11-14T02:03:29.092Z,13.07
2022-11-14T02:04:37.765Z,12.55
2022-11-14T02:05:40.374Z,12.48
2022-11-14T02:06:42.391Z,11.90
2022-11-14T02:07:44.854Z,10.90
2022-11-14T02:08:49.525Z,11.43
2022-11-14T02:09:51.925Z,11.32
2022-11-14T02:10:54.648Z,11.88
2022-11-14T02:11:59.246Z,11.85
2022-11-14T02:13:01.969Z,11.18
2022-11-14T02:14:04.933Z,11.38
2022-11-14T02:15:11.654Z,14.45
2022-11-14T02:16:14.157Z,13.90
2022-11-14T02:17:33.993Z,12.95
2022-11-14T02:18:41.988Z,12.93
2022-11-14T02:19:49.809Z,13.45
2022-11-14T02:20:54.194Z,13.35
2022-11-14T02:21:56.987Z,11.65
2022-11-14T02:22:58.941Z,13.27
2022-11-14T02:24:01.905Z,13.02
2022-11-14T02:25:04.179Z,14.60
2022-11-14T02:26:06.815Z,12.43
2022-11-14T02:27:13.315Z,13.65
2022-11-14T02:28:14.899Z,13.80
2022-11-14T02:29:17.020Z,15.40
2022-11-14T02:30:21.783Z,14.93
2022-11-14T02:31:23.990Z,14.70
2022-11-14T02:32:28.463Z,13.88
2022-11-14T02:33:35.938Z,12.15
2022-11-14T02:34:41.774Z,12.93
2022-11-14T02:35:43.940Z,11.38
2022-11-14T02:36:48.406Z,14.00
2022-11-14T02:37:49.803Z,11.85
2022-11-14T02:38:57.208Z,13.20
2022-11-14T02:39:58.918Z,13.20
2022-11-14T02:41:03.473Z,11.48
2022-11-14T02:42:05.625Z,12.55
2022-11-14T02:43:08.397Z,10.65
2022-11-14T02:44:09.942Z,11.93
2022-11-14T02:45:13.627Z,9.65
2022-11-14T02:46:15.924Z,14.38
2022-11-14T02:47:18.627Z,11.80
2022-11-14T02:48:21.047Z,13.88
2022-11-14T02:49:23.649Z,10.82
2022-11-14T02:50:26.063Z,12.70
2022-11-14T02:51:28.950Z,11.75
2022-11-14T02:52:31.145Z,10.82
2022-11-14T02:53:33.723Z,12.07
2022-11-14T02:54:35.953Z,11.73
2022-11-14T02:55:38.760Z,11.50
2022-11-14T02:56:42.671Z,12.13
2022-11-14T02:57:45.475Z,10.50
2022-11-14T02:58:46.915Z,11.65
2022-11-14T02:59:49.798Z,11.93
2022-11-14T03:01:18.525Z,12.98
2022-11-14T03:02:16.307Z,12.80
2022-11-14T03:03:18.099Z,13.07
2022-11-14T03:04:23.084Z,14.32
2022-11-14T03:05:25.028Z,12.88
2022-11-14T03:06:26.485Z,13.07
2022-11-14T03:07:28.005Z,14.68
2022-11-14T03:08:30.331Z,11.10
2022-11-14T03:09:31.962Z,12.00
2022-11-14T03:10:34.155Z,12.25
2022-11-14T03:11:35.986Z,11.90
2022-11-14T03:12:37.990Z,13.00
2022-11-14T03:13:39.980Z,13.13
2022-11-14T03:14:42.949Z,10.88
2022-11-14T03:15:45.136Z,12.60
2022-11-14T03:16:46.939Z,13.18
2022-11-14T03:17:50.377Z,10.73
2022-11-14T03:18:56.062Z,10.45
2022-11-14T03:19:59.073Z,12.15
2022-11-14T03:21:21.224Z,10.40
2022-11-14T03:22:23.965Z,11.00
2022-11-14T03:23:28.302Z,11.07
2022-11-14T03:24:30.095Z,11.40
2022-11-14T03:25:31.980Z,12.80
2022-11-14T03:26:34.238Z,12.93
2022-11-14T03:27:38.382Z,11.05
2022-11-14T03:28:43.103Z,13.65
2022-11-14T03:29:44.917Z,10.70
2022-11-14T03:30:46.364Z,11.23
2022-11-14T03:31:50.298Z,11.55
2022-11-14T03:32:53.209Z,10.48
2022-11-14T03:33:54.970Z,10.20
2022-11-14T03:34:56.918Z,12.07
2022-11-14T03:35:59.138Z,12.50
2022-11-14T03:37:01.117Z,12.32
2022-11-14T03:38:02.974Z,12.55
2022-11-14T03:39:07.630Z,11.68
2022-11-14T03:40:10.329Z,11.73
2022-11-14T03:41:14.479Z,10.02
2022-11-14T03:42:18.342Z,9.93
2022-11-14T03:43:21.294Z,10.00
2022-11-14T03:44:22.938Z,10.98
2022-11-14T03:45:34.070Z,9.73
2022-11-14T03:46:38.421Z,10.75
2022-11-14T03:47:39.842Z,12.70
2022-11-14T03:48:41.932Z,10.63
2022-11-14T03:49:45.151Z,9.88
2022-11-14T03:50:46.991Z,11.00
2022-11-14T03:51:49.894Z,10.95
2022-11-14T03:52:52.962Z,15.45
2022-11-14T03:53:55.879Z,13.10
2022-11-14T03:54:57.469Z,11.75
2022-11-14T03:55:59.032Z,10.98
2022-11-14T03:57:00.924Z,10.80
2022-11-14T03:58:02.937Z,9.95
2022-11-14T03:59:04.966Z,11.90
2022-11-14T04:00:08.685Z,11.18
2022-11-14T04:01:11.033Z,11.10
2022-11-14T04:02:15.898Z,12.25
2022-11-14T04:03:20.539Z,11.27
2022-11-14T04:04:23.229Z,11.50
2022-11-14T04:05:25.019Z,11.00
2022-11-14T04:06:26.951Z,11.98
2022-11-14T04:07:29.754Z,11.55
2022-11-14T04:08:32.887Z,12.02
2022-11-14T04:09:38.838Z,11.32
2022-11-14T04:10:41.376Z,11.05
2022-11-14T04:11:44.034Z,9.02
2022-11-14T04:12:53.725Z,11.23
2022-11-14T04:13:56.321Z,10.07
2022-11-14T04:14:57.983Z,10.98
2022-11-14T04:16:00.560Z,8.85
2022-11-14T04:17:02.173Z,9.18
2022-11-14T04:18:07.669Z,10.40
2022-11-14T04:19:09.969Z,11.30
2022-11-14T04:20:14.438Z,9.15
2022-11-14T04:21:18.302Z,10.80
2022-11-14T04:22:21.274Z,10.40
2022-11-14T04:23:23.110Z,13.20
2022-11-14T04:25:27.140Z,10.43
2022-11-14T04:26:29.693Z,9.10
2022-11-14T04:27:31.955Z,9.30
2022-11-14T04:28:34.313Z,10.48
2022-11-14T04:29:36.005Z,10.20
2022-11-14T04:30:38.947Z,10.65
2022-11-14T04:31:45.054Z,9.48
2022-11-14T04:32:49.454Z,9.52
2022-11-14T04:33:52.005Z,8.93
2022-11-14T04:34:54.395Z,9.45
2022-11-14T04:35:57.055Z,10.77
2022-11-14T04:36:59.691Z,11.65
2022-11-14T04:38:02.667Z,8.75
2022-11-14T04:39:07.034Z,9.00
2022-11-14T04:40:09.479Z,9.52
2022-11-14T04:41:14.259Z,10.10
2022-11-14T04:42:19.109Z,10.45
2022-11-14T04:43:22.950Z,10.32
2022-11-14T04:44:24.945Z,7.57
2022-11-14T04:45:30.491Z,9.07
2022-11-14T04:46:32.019Z,9.00
2022-11-14T04:47:34.797Z,9.45
2022-11-14T04:48:36.933Z,10.48
2022-11-14T04:49:41.699Z,10.50
2022-11-14T04:50:46.340Z,9.23
2022-11-14T04:51:50.058Z,9.95
2022-11-14T04:52:55.900Z,9.90
2022-11-14T04:54:01.226Z,8.90
2022-11-14T04:55:03.430Z,11.65
2022-11-14T04:56:06.335Z,9.75
2022-11-14T04:57:08.074Z,10.20
2022-11-14T04:58:11.084Z,11.73
2022-11-14T04:59:15.808Z,10.75
2022-11-14T05:00:25.713Z,9.75
2022-11-14T05:01:30.276Z,10.40
2022-11-14T05:02:33.138Z,10.38
2022-11-14T05:03:37.207Z,9.73
2022-11-14T05:04:40.222Z,9.93
2022-11-14T05:05:43.336Z,10.23
2022-11-14T05:06:47.049Z,11.38
2022-11-14T05:07:49.783Z,9.63
2022-11-14T05:08:52.085Z,11.95
2022-11-14T05:09:54.674Z,10.82
2022-11-14T05:11:00.085Z,10.55
2022-11-14T05:12:03.997Z,10.88
2022-11-14T05:13:08.051Z,12.55
2022-11-14T05:23:38.265Z,9.95
2022-11-14T05:26:46.196Z,9.45
2022-11-14T05:27:48.455Z,9.52
2022-11-14T05:28:51.197Z,10.00
2022-11-14T05:29:53.012Z,8.98
2022-11-14T05:31:09.858Z,9.07
2022-11-14T05:32:16.124Z,9.30
2022-11-14T05:33:19.391Z,9.75
2022-11-14T05:34:21.027Z,10.70
2022-11-14T05:35:23.567Z,10.25
2022-11-14T05:36:27.301Z,11.25
2022-11-14T05:37:30.105Z,10.38
2022-11-14T05:38:36.333Z,10.05
2022-11-14T05:39:41.458Z,10.15
2022-11-14T05:40:43.084Z,10.25
2022-11-14T05:41:47.958Z,9.80
2022-11-14T05:42:49.957Z,9.75
2022-11-14T05:43:52.902Z,9.77
2022-11-14T07:45:43.453Z,10.18
2022-11-14T07:46:50.444Z,10.70
2022-11-14T07:48:25.295Z,10.55
2022-11-14T07:50:17.605Z,10.40
2022-11-14T07:52:44.834Z,9.63
2022-11-14T07:54:03.784Z,8.98
2022-11-14T07:56:11.333Z,10.05
2022-11-14T07:57:45.118Z,9.60
2022-11-14T07:59:27.632Z,9.13
2022-11-14T08:00:39.582Z,11.45
2022-11-14T08:01:55.589Z,17.27
2022-11-14T08:58:38.603Z,11.40
2022-11-14T09:00:03.159Z,11.60
2022-11-14T09:01:10.281Z,11.15
2022-11-14T09:02:16.866Z,10.50
2022-11-14T09:04:02.652Z,11.13
2022-11-14T09:06:53.511Z,10.88
2022-11-14T09:08:20.140Z,10.70
2022-11-14T09:09:27.561Z,10.70
2022-11-14T09:10:31.552Z,10.13
2022-11-14T09:11:35.470Z,10.55
2022-11-14T09:12:48.708Z,9.38
2022-11-14T09:14:34.075Z,9.65
2022-11-14T09:15:50.357Z,9.85
2022-11-14T09:16:53.079Z,9.50
2022-11-14T09:18:06.301Z,8.18
2022-11-14T09:19:21.110Z,9.20
2022-11-14T09:20:30.122Z,9.55
2022-11-14T09:21:37.319Z,15.80
2022-11-14T09:22:39.713Z,12.32
2022-11-14T09:23:49.343Z,10.15
2022-11-14T09:24:53.059Z,10.40
2022-11-14T09:26:01.738Z,10.02
2022-11-14T09:27:07.900Z,13.67
2022-11-14T09:28:10.278Z,10.45
2022-11-14T09:29:15.318Z,10.38
2022-11-14T09:30:28.019Z,10.27
2022-11-14T09:31:32.578Z,10.15
2022-11-14T09:32:39.326Z,11.03
2022-11-14T09:33:42.258Z,10.60
2022-11-14T09:34:59.770Z,10.02
2022-11-14T09:36:11.272Z,9.55
2022-11-14T09:37:14.419Z,10.23
2022-11-14T09:38:21.897Z,10.85
2022-11-14T09:39:24.558Z,10.18
2022-11-14T09:40:31.058Z,12.18
2022-11-14T09:41:58.318Z,11.40
2022-11-14T09:43:05.156Z,13.02
2022-11-14T09:44:36.574Z,9.45
2022-11-14T09:45:43.217Z,9.20
2022-11-14T09:46:52.216Z,10.20
2022-11-14T09:48:22.356Z,9.85
2022-11-14T09:49:45.852Z,10.32
2022-11-14T09:50:58.454Z,10.35
2022-11-14T09:52:13.252Z,9.68
2022-11-14T09:53:40.257Z,10.50
2022-11-14T09:54:55.736Z,9.88
2022-11-14T09:56:07.437Z,9.93
2022-11-14T09:57:27.195Z,10.18
2022-11-14T09:58:39.533Z,10.23
2022-11-14T09:59:42.747Z,9.80
2022-11-14T10:00:53.177Z,9.98
2022-11-14T10:02:31.094Z,10.70
2022-11-14T10:03:52.934Z,12.30
2022-11-14T10:05:26.942Z,9.57
2022-11-14T10:06:35.684Z,8.70
2022-11-14T10:08:09.349Z,10.93
2022-11-14T10:09:32.415Z,10.50
2022-11-14T10:11:01.755Z,10.90
2022-11-14T10:12:23.815Z,9.70
2022-11-14T10:13:40.154Z,9.50
2022-11-14T10:14:58.594Z,9.68
2022-11-14T10:16:05.053Z,9.77
2022-11-14T10:17:25.771Z,10.15
2022-11-14T10:18:55.607Z,9.85
2022-11-14T10:20:17.434Z,10.00
2022-11-14T10:21:34.435Z,10.25
2022-11-14T10:23:02.570Z,10.05
2022-11-14T10:24:19.113Z,12.52
2022-11-14T10:25:25.919Z,12.32
2022-11-14T10:26:30.901Z,12.77
2022-11-14T10:27:55.892Z,11.90
2022-11-14T10:29:15.859Z,10.43
2022-11-14T10:30:18.986Z,11.40
2022-11-14T10:31:30.260Z,11.32
2022-11-14T10:32:53.161Z,11.80
2022-11-14T10:34:16.161Z,11.85
2022-11-14T10:35:35.114Z,12.20
2022-11-14T10:36:58.599Z,12.30
2022-11-14T10:38:03.087Z,11.70
2022-11-14T10:39:25.281Z,11.80
2022-11-14T10:43:23.441Z,9.80
2022-11-14T10:44:27.422Z,10.07
2022-11-14T10:45:40.561Z,10.05
2022-11-14T10:46:48.326Z,10.00
2022-11-14T10:48:04.111Z,11.65
2022-11-14T10:49:21.706Z,10.95
2022-11-14T10:50:31.702Z,11.60
2022-11-14T10:51:39.922Z,11.25
2022-11-14T10:52:44.610Z,10.60
2022-11-14T10:53:49.311Z,10.70
2022-11-14T10:55:11.661Z,10.63
2022-11-14T10:56:15.103Z,10.80
2022-11-14T10:57:22.003Z,10.43
2022-11-14T10:58:30.871Z,10.20
2022-11-14T10:59:35.225Z,10.10
2022-11-14T11:00:37.607Z,10.77
2022-11-14T11:01:44.460Z,14.63
2022-11-14T11:02:57.262Z,12.63
2022-11-14T11:04:17.966Z,14.82
2022-11-14T11:05:24.356Z,17.10
2022-11-14T11:06:31.601Z,15.98
2022-11-14T11:08:28.330Z,14.95
2022-11-14T11:09:48.612Z,12.77
2022-11-14T11:11:18.880Z,12.35
2022-11-14T11:12:22.657Z,12.50
2022-11-14T11:13:30.439Z,10.80
2022-11-14T11:14:36.903Z,9.85
2022-11-14T11:15:40.919Z,9.88
2022-11-14T11:16:45.580Z,10.02
2022-11-14T11:18:08.199Z,9.98
2022-11-14T11:19:15.639Z,9.00
2022-11-14T11:20:40.760Z,9.95
2022-11-14T11:21:51.394Z,10.50
2022-11-14T11:23:05.280Z,9.82
2022-11-14T11:24:09.638Z,11.30
2022-11-14T11:25:30.423Z,10.73
2022-11-14T11:26:33.237Z,10.25
2022-11-14T11:27:35.522Z,9.55
2022-11-14T11:28:38.596Z,9.93
2022-11-14T11:29:40.337Z,9.77
2022-11-14T11:31:04.625Z,9.77
2022-11-14T11:32:08.342Z,10.85
2022-11-14T11:33:39.656Z,16.08
2022-11-14T11:34:41.615Z,12.13
2022-11-14T11:35:45.325Z,11.60
2022-11-14T11:36:53.638Z,11.68
2022-11-14T11:38:00.948Z,11.00
2022-11-14T11:39:03.563Z,12.52
2022-11-14T11:40:07.695Z,11.82
2022-11-14T11:42:08.917Z,11.35
2022-11-14T11:43:37.147Z,11.75
2022-11-14T11:44:24.979Z,11.70
2022-11-14T11:45:29.095Z,11.57
2022-11-14T11:46:51.274Z,11.38
2022-11-14T11:48:12.120Z,10.68
2022-11-14T11:49:31.145Z,10.55
2022-11-14T11:50:33.794Z,9.60
2022-11-14T11:51:40.094Z,10.00
2022-11-14T12:40:34.149Z,9.32
2022-11-14T12:41:38.723Z,10.20
2022-11-14T12:43:01.023Z,11.38
2022-11-14T12:44:29.906Z,11.35
2022-11-14T12:45:50.050Z,11.38
2022-11-14T12:47:12.909Z,11.77
2022-11-14T17:18:54.534Z,8.40
2022-11-14T17:19:57.459Z,8.63
2022-11-14T17:20:59.509Z,9.95
2022-11-14T17:22:02.090Z,7.70
2022-11-14T17:23:07.549Z,9.90
2022-11-14T17:24:10.907Z,9.75
2022-11-14T17:25:12.839Z,12.10
2022-11-14T17:26:16.300Z,10.40
2022-11-14T17:27:23.024Z,10.65
2022-11-14T17:28:25.953Z,11.40
2022-11-14T17:29:29.472Z,12.30
2022-11-14T17:30:34.663Z,12.82
2022-11-14T17:31:38.362Z,11.52
2022-11-14T17:32:46.868Z,11.75
2022-11-14T17:33:56.617Z,10.60
2022-11-14T17:34:59.400Z,9.23
2022-11-14T17:36:16.270Z,9.43
2022-11-14T17:37:19.585Z,9.48
2022-11-14T17:38:21.811Z,10.52
2022-11-14T17:39:24.576Z,9.43
2022-11-14T17:40:27.605Z,10.18
2022-11-14T17:41:30.730Z,9.25
2022-11-14T17:42:32.461Z,9.75
2022-11-14T17:43:39.519Z,9.75
2022-11-14T17:44:42.540Z,9.80
2022-11-14T17:45:54.384Z,9.90
2022-11-14T17:46:56.471Z,9.95
2022-11-14T17:47:59.426Z,9.63
2022-11-14T17:49:01.888Z,9.82
2022-11-14T17:50:05.335Z,8.90
2022-11-14T17:51:10.501Z,9.60
2022-11-14T17:52:13.115Z,9.10
2022-11-14T17:53:15.479Z,9.27
2022-11-14T17:54:19.433Z,9.37
2022-11-14T17:55:21.306Z,10.02
2022-11-14T17:56:25.143Z,9.85
2022-11-14T17:57:29.796Z,9.70
2022-11-14T17:58:32.047Z,10.45
2022-11-14T17:59:39.224Z,10.50
2022-11-14T18:00:47.786Z,10.10
2022-11-14T18:01:49.682Z,10.43
2022-11-14T18:02:55.282Z,10.82
2022-11-14T18:04:03.050Z,11.05
2022-11-14T18:05:10.788Z,9.77
2022-11-14T18:06:14.212Z,10.43
2022-11-14T18:07:17.171Z,11.07
2022-11-14T18:08:22.059Z,11.07
2022-11-14T18:09:27.237Z,12.57
2022-11-14T18:10:32.112Z,11.95
2022-11-14T18:11:35.089Z,13.02
2022-11-14T18:12:38.313Z,14.25
2022-11-14T18:13:40.373Z,14.45
2022-11-14T18:14:43.136Z,12.52
2022-11-14T18:16:12.764Z,13.00
2022-11-14T18:17:16.573Z,13.30
2022-11-14T18:18:23.394Z,13.82
2022-11-14T18:19:25.631Z,13.00
2022-11-14T18:20:28.418Z,13.30
2022-11-14T18:21:32.815Z,14.40
2022-11-14T18:22:35.696Z,13.73
2022-11-14T18:23:38.812Z,13.73
2022-11-14T18:24:43.471Z,13.93
2022-11-14T18:25:45.609Z,14.05
2022-11-14T18:26:50.510Z,13.70
2022-11-14T18:27:54.875Z,15.50
2022-11-14T18:28:57.271Z,16.10
2022-11-14T18:30:08.414Z,16.38
2022-11-14T18:31:22.762Z,25.25
2022-11-14T18:32:24.646Z,18.23
2022-11-14T18:33:26.399Z,16.17
2022-11-14T18:34:30.853Z,16.42
2022-11-14T18:35:34.605Z,16.13
2022-11-14T18:36:36.472Z,15.90
2022-11-14T18:37:39.228Z,16.05
2022-11-14T18:38:41.826Z,14.75
2022-11-14T18:39:47.035Z,13.75
2022-11-14T18:40:54.330Z,14.35
2022-11-14T18:42:04.238Z,13.77
2022-11-14T18:43:06.480Z,16.00
2022-11-14T18:44:09.154Z,15.18
2022-11-14T18:45:11.554Z,20.50
2022-11-14T18:46:17.365Z,16.60
2022-11-14T18:47:19.512Z,16.88
2022-11-14T18:48:21.040Z,34.05
2022-11-14T18:49:23.733Z,20.60
2022-11-14T18:50:28.619Z,19.98
2022-11-14T18:51:31.340Z,18.15
2022-11-14T18:52:33.314Z,17.92
2022-11-14T18:53:38.706Z,16.90
2022-11-14T18:54:40.390Z,18.13
2022-11-14T18:55:42.574Z,19.80
2022-11-14T18:59:51.589Z,26.02
2022-11-14T19:00:55.437Z,30.63
2022-11-14T19:01:58.412Z,31.50
2022-11-14T19:03:06.042Z,30.98
2022-11-14T19:04:10.668Z,27.95
2022-11-14T19:05:13.592Z,28.23
2022-11-14T19:06:17.906Z,26.65
2022-11-14T19:07:21.564Z,21.25
2022-11-14T19:08:23.518Z,20.98
2022-11-14T19:09:26.365Z,23.27
2022-11-14T19:10:30.850Z,24.17
2022-11-14T19:11:54.252Z,28.57
2022-11-14T19:12:56.693Z,27.58
2022-11-14T19:14:06.204Z,25.70
2022-11-14T19:15:09.552Z,22.10
2022-11-14T19:16:12.577Z,19.65
2022-11-14T19:17:21.282Z,16.98
2022-11-14T19:18:24.309Z,17.50
2022-11-14T19:19:26.607Z,15.60
2022-11-14T19:20:29.433Z,15.30
2022-11-14T19:21:31.937Z,15.70
2022-11-14T19:22:35.037Z,14.88
2022-11-14T19:23:36.601Z,16.23
2022-11-14T19:24:43.596Z,18.17
2022-11-14T19:25:45.654Z,18.05
2022-11-14T19:26:47.971Z,20.35
2022-11-14T19:27:51.117Z,20.25
2022-11-14T19:28:54.485Z,20.52
2022-11-14T19:29:58.208Z,19.05
2022-11-14T19:31:03.442Z,15.98
2022-11-14T19:32:06.876Z,14.75
2022-11-14T19:33:10.910Z,16.33
2022-11-14T19:34:12.535Z,15.52
2022-11-14T19:35:20.445Z,14.23
2022-11-14T19:36:52.647Z,12.95
2022-11-14T19:37:47.530Z,12.88
2022-11-14T19:38:53.546Z,14.50
2022-11-14T19:39:55.652Z,14.10
2022-11-14T19:41:03.493Z,13.73
2022-11-14T19:42:10.065Z,12.38
2022-11-14T19:43:12.731Z,12.55
2022-11-14T19:44:14.448Z,13.07
2022-11-14T19:45:16.609Z,13.95
2022-11-14T19:46:20.863Z,14.05
2022-11-14T19:47:22.670Z,12.75
2022-11-14T19:48:25.713Z,15.27
2022-11-14T19:49:30.545Z,15.95
2022-11-14T19:50:32.196Z,13.73
2022-11-14T19:51:35.293Z,15.00
2022-11-14T19:52:40.875Z,15.25
2022-11-14T19:53:42.970Z,15.25
2022-11-14T19:54:47.370Z,15.10
2022-11-14T19:55:49.685Z,16.13
2022-11-14T19:56:51.515Z,17.40
2022-11-14T19:57:53.534Z,18.73
2022-11-14T19:58:56.753Z,19.02
2022-11-14T20:00:02.222Z,20.08
2022-11-14T20:01:05.044Z,19.13
2022-11-14T20:02:13.195Z,17.98
2022-11-14T20:03:14.761Z,18.55
2022-11-14T20:04:16.561Z,17.00
2022-11-14T20:05:18.670Z,18.27
2022-11-14T20:06:25.528Z,17.25
2022-11-14T20:07:27.685Z,18.08
2022-11-14T20:08:29.415Z,18.45
2022-11-14T20:09:32.037Z,17.08
2022-11-14T20:10:48.303Z,17.73
2022-11-14T20:11:51.094Z,18.98
2022-11-14T20:12:53.586Z,19.88
2022-11-14T20:13:56.883Z,21.85
2022-11-14T20:14:58.631Z,20.80
2022-11-14T20:16:07.564Z,19.23
2022-11-14T20:17:10.930Z,18.33
2022-11-14T20:18:14.075Z,17.42
2022-11-14T20:19:17.035Z,17.85
2022-11-14T20:20:18.751Z,16.83
2022-11-14T20:21:22.581Z,15.65
2022-11-14T20:22:24.562Z,15.63
2022-11-14T20:23:27.713Z,15.43
2022-11-14T20:24:29.832Z,14.30
2022-11-14T20:25:31.618Z,17.23
2022-11-14T20:26:34.205Z,18.13
2022-11-14T20:27:36.077Z,17.10
2022-11-14T20:28:41.791Z,15.68
2022-11-14T20:29:43.588Z,16.23
2022-11-14T20:30:46.900Z,16.63
2022-11-14T20:31:48.711Z,18.20
2022-11-14T20:32:52.781Z,18.65
2022-11-14T20:33:54.976Z,19.67
2022-11-14T20:34:56.675Z,17.92
2022-11-14T20:36:07.058Z,19.48
2022-11-14T20:37:11.826Z,17.88
2022-11-14T20:38:14.907Z,18.77
2022-11-14T20:39:17.780Z,18.95
2022-11-14T20:40:21.579Z,18.67
2022-11-14T20:41:24.831Z,18.88
2022-11-14T20:42:26.612Z,18.95
2022-11-14T20:43:30.882Z,19.33
2022-11-14T20:44:33.552Z,19.00
2022-11-14T20:45:59.695Z,18.48
2022-11-14T20:47:01.635Z,19.13
2022-11-14T20:48:10.421Z,18.67
2022-11-14T20:49:14.795Z,19.52
2022-11-14T20:50:19.541Z,18.65
2022-11-14T20:51:23.827Z,18.55
2022-11-14T20:52:27.303Z,17.83
2022-11-14T20:53:30.572Z,17.50
2022-11-14T20:54:32.721Z,17.33
2022-11-14T20:55:35.547Z,14.98
2022-11-14T20:56:37.596Z,15.13
2022-11-14T20:57:39.680Z,14.48
2022-11-14T20:58:43.838Z,13.10
2022-11-14T20:59:46.677Z,12.98
2022-11-14T21:00:55.103Z,13.10
2022-11-14T21:01:57.601Z,12.63
2022-11-14T21:03:00.466Z,12.00
2022-11-14T21:04:02.935Z,12.85
2022-11-14T21:05:05.073Z,12.63
2022-11-14T21:06:10.283Z,12.68
2022-11-14T21:07:12.755Z,13.38
2022-11-14T21:08:14.620Z,11.40
2022-11-14T21:09:19.579Z,12.07
2022-11-14T21:10:40.392Z,11.68
2022-11-14T21:11:43.120Z,12.15
2022-11-14T21:13:06.650Z,13.25
2022-11-14T21:14:11.036Z,13.85
2022-11-14T21:15:18.616Z,11.98
2022-11-14T21:16:21.884Z,13.27
2022-11-14T21:17:23.612Z,13.32
2022-11-14T21:18:29.273Z,13.30
2022-11-14T21:19:34.619Z,13.93
2022-11-14T21:20:36.561Z,17.23
2022-11-14T21:21:39.520Z,17.48
2022-11-14T21:22:41.551Z,18.77
2022-11-14T21:23:47.976Z,19.27
2022-11-14T21:24:51.335Z,18.57
2022-11-14T21:26:00.479Z,18.58
2022-11-14T21:27:05.516Z,18.65
2022-11-14T21:28:07.564Z,21.02
2022-11-14T21:29:14.362Z,18.65
2022-11-14T21:30:19.162Z,18.38
2022-11-14T21:31:33.728Z,19.25
2022-11-14T21:32:36.360Z,20.48
2022-11-14T21:33:39.186Z,19.60
2022-11-14T21:34:41.549Z,19.35
2022-11-14T21:35:45.402Z,18.45
2022-11-14T21:36:48.349Z,20.80
2022-11-14T21:37:52.332Z,18.88
2022-11-14T21:38:55.114Z,18.35
2022-11-14T21:39:56.619Z,12.52
2022-11-14T21:41:00.894Z,13.85
2022-11-14T21:42:04.969Z,14.88
2022-11-14T21:43:06.567Z,14.32
2022-11-14T21:44:10.578Z,14.30
2022-11-14T21:45:12.547Z,13.63
2022-11-14T21:46:19.627Z,14.07
2022-11-14T21:47:22.070Z,14.25
2022-11-14T21:48:23.789Z,13.32
2022-11-14T21:49:25.749Z,13.80
2022-11-14T21:50:27.238Z,13.80
2022-11-14T21:51:31.885Z,14.63
2022-11-14T21:52:34.574Z,13.98
2022-11-14T21:53:36.971Z,13.98
2022-11-14T21:54:39.805Z,12.68
2022-11-14T21:55:42.279Z,13.00
2022-11-14T21:56:47.193Z,12.43
2022-11-14T21:57:55.794Z,12.57
2022-11-14T21:59:15.799Z,12.13
2022-11-14T22:00:21.676Z,12.25
2022-11-14T22:01:43.699Z,12.75
2022-11-14T22:03:04.559Z,13.00
2022-11-14T22:04:15.227Z,12.07
2022-11-14T22:05:17.572Z,12.30
2022-11-14T22:06:21.522Z,12.40
2022-11-14T22:07:23.713Z,14.02
2022-11-14T22:08:26.703Z,13.98
2022-11-14T22:09:29.111Z,13.32
2022-11-14T22:10:31.610Z,13.40
2022-11-14T22:11:33.892Z,14.57
2022-11-14T22:12:37.882Z,14.25
2022-11-14T22:13:39.859Z,14.38
2022-11-14T22:14:43.015Z,14.10
2022-11-14T22:15:44.923Z,14.25
2022-11-14T22:16:47.816Z,13.23
2022-11-14T22:17:50.943Z,13.60
2022-11-14T22:18:54.012Z,13.88
2022-11-14T22:19:55.566Z,15.73
2022-11-14T22:21:00.078Z,15.80
2022-11-14T22:22:02.602Z,14.63
2022-11-14T22:23:04.588Z,15.23
2022-11-14T22:24:07.171Z,15.43
2022-11-14T22:25:10.043Z,14.00
2022-11-14T22:26:12.976Z,14.25
2022-11-14T22:27:18.517Z,13.88
2022-11-14T22:28:22.841Z,13.68
2022-11-14T22:29:25.512Z,14.32
2022-11-14T22:30:27.610Z,14.38
2022-11-14T22:31:29.568Z,13.80
2022-11-14T22:32:32.273Z,14.10
2022-11-14T22:33:36.512Z,13.85
2022-11-14T22:34:39.865Z,14.23
2022-11-14T22:35:42.879Z,13.43
2022-11-14T22:36:44.970Z,13.05
2022-11-14T22:37:47.679Z,12.53
2022-11-14T22:38:50.227Z,12.55
2022-11-14T22:39:55.391Z,13.38
2022-11-14T22:40:58.244Z,12.90
2022-11-14T22:42:00.599Z,13.52
2022-11-14T22:43:02.587Z,12.75
2022-11-14T22:44:06.780Z,12.70
2022-11-14T22:45:11.458Z,12.50
2022-11-14T22:46:15.463Z,12.27
2022-11-14T22:47:17.939Z,13.30
2022-11-14T22:48:23.019Z,12.88
2022-11-14T22:49:24.600Z,13.07
2022-11-14T22:50:27.643Z,13.80
2022-11-14T22:51:30.714Z,13.13
2022-11-14T22:52:32.622Z,12.75
2022-11-14T22:53:35.615Z,13.15